Time;durP1;ratioP1;P1;durP2;ratioP2;P2;SDS_P1;SDS_P2;PMS_P1;PMS_P2;Temp;Humidity;BMP_temperature;BMP_pressure;BME280_temperature;BME280_humidity;BME280_pressure;Samples;Min_cycle;Max_cycle;Signal;HPM_P1;HPM_P2
2022/12/20 00:00:32;;;;;;;7.13;3.67;;;;;;;6.07;100.00;101228.31;6200072;28;20051;-74
2022/12/20 00:03:34;;;;;;;8.40;3.88;;;;;;;6.13;100.00;101236.88;6199963;28;20053;-74
2022/12/20 00:06:37;;;;;;;6.78;3.67;;;;;;;6.12;100.00;101236.03;6199945;28;20525;-74
2022/12/20 00:09:38;;;;;;;10.43;4.05;;;;;;;6.03;100.00;101224.09;6199826;28;20157;-74
2022/12/20 00:12:39;;;;;;;5.82;3.20;;;;;;;5.99;100.00;101219.84;6199880;28;20494;-74
2022/12/20 00:15:41;;;;;;;6.07;2.80;;;;;;;6.03;100.00;101212.78;6200277;28;20050;-74
2022/12/20 00:18:43;;;;;;;8.65;3.78;;;;;;;5.92;100.00;101200.06;6199800;28;20079;-74
2022/12/20 00:21:46;;;;;;;7.15;4.00;;;;;;;5.95;100.00;101206.91;6199243;28;20058;-74
2022/12/20 00:24:48;;;;;;;8.82;3.22;;;;;;;5.97;100.00;101190.34;6199568;28;20054;-74
2022/12/20 00:27:50;;;;;;;7.13;3.53;;;;;;;6.03;100.00;101184.94;6199593;28;20054;-74
2022/12/20 00:30:53;;;;;;;5.72;3.28;;;;;;;6.04;100.00;101178.84;6199604;28;20053;-74
2022/12/20 00:33:56;;;;;;;5.78;3.53;;;;;;;6.00;100.00;101185.06;6199297;28;20050;-74
2022/12/20 00:36:59;;;;;;;5.97;2.95;;;;;;;6.06;100.00;101184.88;6199352;28;20058;-74
2022/12/20 00:40:00;;;;;;;6.30;3.00;;;;;;;6.09;100.00;101182.19;6199599;28;20042;-74
2022/12/20 00:43:02;;;;;;;6.95;3.35;;;;;;;6.15;100.00;101182.91;6199037;28;20473;-74
2022/12/20 00:46:04;;;;;;;11.65;3.20;;;;;;;6.19;100.00;101179.31;6199221;28;20119;-74
2022/12/20 00:49:06;;;;;;;6.45;3.28;;;;;;;6.10;100.00;101196.94;6198692;28;20046;-74
2022/12/20 00:52:09;;;;;;;8.60;3.80;;;;;;;6.08;100.00;101198.72;6198944;28;20086;-74
2022/12/20 00:55:10;;;;;;;8.13;3.58;;;;;;;6.20;100.00;101188.84;6198839;28;20138;-74
2022/12/20 00:58:12;;;;;;;6.93;3.42;;;;;;;6.17;100.00;101192.41;6199003;28;20062;-74
2022/12/20 01:01:17;;;;;;;7.38;2.90;;;;;;;6.21;100.00;101186.19;6198576;28;20405;-74
2022/12/20 01:04:18;;;;;;;7.80;3.47;;;;;;;6.28;100.00;101187.75;6198779;28;20138;-74
2022/12/20 01:07:22;;;;;;;12.60;4.10;;;;;;;6.17;100.00;101184.56;6198814;28;20049;-74
2022/12/20 01:10:23;;;;;;;6.00;2.80;;;;;;;6.19;100.00;101172.34;6198528;28;20046;-74
2022/12/20 01:13:25;;;;;;;7.82;3.90;;;;;;;6.21;100.00;101178.38;6198569;28;20058;-74
2022/12/20 01:16:28;;;;;;;9.77;3.47;;;;;;;6.21;100.00;101177.50;6198232;28;20047;-74
2022/12/20 01:19:30;;;;;;;5.68;2.97;;;;;;;6.20;100.00;101170.59;6198276;28;20049;-74
2022/12/20 01:22:33;;;;;;;7.85;3.90;;;;;;;6.20;100.00;101174.06;6197980;28;20509;-74
2022/12/20 01:25:34;;;;;;;8.13;3.90;;;;;;;6.21;100.00;101162.72;6198166;28;20047;-74
2022/12/20 01:28:37;;;;;;;7.90;3.30;;;;;;;6.19;100.00;101156.69;6198581;28;20054;-74
2022/12/20 01:31:38;;;;;;;7.70;4.05;;;;;;;6.32;100.00;101159.81;6198310;28;20058;-74
2022/12/20 01:34:40;;;;;;;5.85;3.40;;;;;;;6.37;100.00;101164.91;6197647;28;20054;-74
2022/12/20 01:37:43;;;;;;;9.65;4.90;;;;;;;6.45;100.00;101171.59;6198353;28;20053;-74
2022/12/20 01:40:44;;;;;;;9.00;3.42;;;;;;;6.41;100.00;101167.38;6197646;28;20050;-74
2022/12/20 01:43:51;;;;;;;8.25;3.58;;;;;;;6.39;100.00;101163.09;6197670;28;20060;-74
2022/12/20 01:46:53;;;;;;;7.30;4.07;;;;;;;6.39;100.00;101152.63;6197952;28;20065;-74
2022/12/20 01:49:57;;;;;;;7.10;3.60;;;;;;;6.39;100.00;101148.28;6197697;28;20053;-74
2022/12/20 01:53:02;;;;;;;9.88;3.40;;;;;;;6.44;100.00;101155.97;6197824;28;20061;-74
2022/12/20 01:56:06;;;;;;;10.95;4.07;;;;;;;6.48;100.00;101147.16;6197314;28;20054;-74
2022/12/20 01:59:08;;;;;;;8.10;2.90;;;;;;;6.49;100.00;101152.31;6196900;28;20049;-74
2022/12/20 02:02:11;;;;;;;7.93;3.08;;;;;;;6.41;100.00;101149.09;6197220;28;20046;-74
2022/12/20 02:05:14;;;;;;;7.35;3.08;;;;;;;6.52;100.00;101151.38;6197291;28;20062;-74
2022/12/20 02:08:19;;;;;;;8.68;3.65;;;;;;;6.51;100.00;101153.13;6197458;28;20089;-76
2022/12/20 02:11:46;;;;;;;7.53;3.33;;;;;;;6.53;100.00;101153.94;6197136;28;20053;-74
2022/12/20 02:15:02;;;;;;;6.07;3.60;;;;;;;6.54;100.00;101149.56;6191219;28;20526;-74
2022/12/20 02:18:16;;;;;;;7.70;3.30;;;;;;;6.57;100.00;101146.88;6197264;28;20055;-74
2022/12/20 02:21:30;;;;;;;10.88;3.80;;;;;;;6.53;100.00;101146.09;6196918;28;20058;-74
2022/12/20 02:25:00;;;;;;;7.20;2.67;;;;;;;6.55;100.00;101125.19;6196893;28;20042;-77
2022/12/20 02:28:05;;;;;;;;;;;;;;;6.54;100.00;101126.06;6197679;28;20053;-74
2022/12/20 02:31:12;;;;;;;7.32;3.60;;;;;;;6.61;100.00;101138.03;6196752;28;20381;-74
2022/12/20 02:34:16;;;;;;;12.90;3.15;;;;;;;6.68;100.00;101136.13;6197069;28;20056;-74
2022/12/20 02:37:17;;;;;;;7.18;3.05;;;;;;;6.59;100.00;101130.25;6196925;28;20050;-77
2022/12/20 02:40:23;;;;;;;5.43;3.13;;;;;;;6.59;100.00;101124.19;6196326;28;20434;-77
2022/12/20 02:46:49;;;;;;;12.73;3.25;;;;;;;6.54;100.00;101129.56;6196777;28;20137;-74
2022/12/20 02:49:52;;;;;;;6.20;3.10;;;;;;;6.56;100.00;101117.28;6196569;28;20054;-74
2022/12/20 02:52:54;;;;;;;6.85;3.53;;;;;;;6.67;100.00;101109.13;6196451;28;20055;-74
2022/12/20 02:56:01;;;;;;;6.32;2.97;;;;;;;6.79;100.00;101121.78;6196326;28;20065;-74
2022/12/20 02:59:08;;;;;;;7.97;3.80;;;;;;;6.79;100.00;101115.72;6196782;28;20065;-74
2022/12/20 03:02:12;;;;;;;6.38;3.10;;;;;;;6.89;100.00;101121.50;6196234;28;20517;-76
2022/12/20 03:05:14;;;;;;;5.28;2.72;;;;;;;6.90;100.00;101116.22;6196586;28;20085;-76
2022/12/20 03:08:15;;;;;;;7.63;3.25;;;;;;;6.95;100.00;101116.06;6196384;28;20058;-77
2022/12/20 03:11:16;;;;;;;6.32;3.53;;;;;;;6.93;100.00;101110.06;6199145;28;20057;-76
2022/12/20 03:14:18;;;;;;;7.25;3.65;;;;;;;6.84;100.00;101119.88;6201396;28;20057;-76
2022/12/20 03:17:21;;;;;;;8.45;3.45;;;;;;;6.84;100.00;101121.66;6201171;28;20073;-77
2022/12/20 03:20:22;;;;;;;5.60;2.83;;;;;;;6.75;100.00;101106.28;6200936;28;20050;-77
2022/12/20 03:23:24;;;;;;;6.50;3.10;;;;;;;6.75;100.00;101116.72;6201065;28;20077;-74
2022/12/20 03:26:25;;;;;;;4.80;2.35;;;;;;;6.78;100.00;101112.25;6200949;28;20061;-75
2022/12/20 03:29:27;;;;;;;5.75;3.05;;;;;;;6.82;100.00;101105.19;6201101;28;20471;-74
2022/12/20 03:32:30;;;;;;;7.55;2.50;;;;;;;6.84;100.00;101096.38;6200830;28;20061;-74
2022/12/20 03:35:31;;;;;;;4.28;2.65;;;;;;;6.71;100.00;101102.03;6199866;28;20055;-76
2022/12/20 03:38:33;;;;;;;7.63;2.80;;;;;;;6.75;100.00;101099.28;6200741;28;20046;-77
2022/12/20 03:41:34;;;;;;;4.65;2.65;;;;;;;6.67;100.00;101103.88;6200369;28;20506;-77
2022/12/20 03:44:36;;;;;;;8.77;2.83;;;;;;;6.67;100.00;101098.66;6200481;28;20054;-74
2022/12/20 03:47:38;;;;;;;8.20;2.55;;;;;;;6.65;100.00;101108.31;6200590;28;20061;-74
2022/12/20 03:50:40;;;;;;;4.82;2.83;;;;;;;6.57;100.00;101092.88;6200279;28;20057;-77
2022/12/20 03:53:42;;;;;;;5.65;2.80;;;;;;;6.67;100.00;101100.44;6200504;28;20062;-76
2022/12/20 03:56:43;;;;;;;6.50;3.03;;;;;;;6.67;100.00;101103.03;6200639;28;20065;-74
2022/12/20 03:59:44;;;;;;;5.45;2.42;;;;;;;6.69;100.00;101112.56;6200406;28;20050;-74
2022/12/20 04:02:47;;;;;;;4.68;2.63;;;;;;;6.60;100.00;101115.44;6200147;28;20133;-74
2022/12/20 04:05:49;;;;;;;4.53;2.67;;;;;;;6.67;100.00;101100.44;6200297;28;20061;-74
2022/12/20 04:08:50;;;;;;;5.00;2.55;;;;;;;6.65;100.00;101113.53;6200177;28;20057;-74
2022/12/20 04:11:52;;;;;;;5.22;2.60;;;;;;;6.66;100.00;101123.09;6199765;28;20049;-74
2022/12/20 04:14:53;;;;;;;5.10;2.63;;;;;;;6.71;100.00;101109.88;6199978;28;20058;-76
2022/12/20 04:17:56;;;;;;;5.68;2.83;;;;;;;6.70;100.00;101118.63;6199832;28;20509;-77
2022/12/20 04:21:00;;;;;;;4.93;2.30;;;;;;;6.78;100.00;101121.84;6199622;28;20046;-75
2022/12/20 04:24:03;;;;;;;4.65;2.63;;;;;;;6.74;100.00;101113.25;6198889;28;20042;-75
2022/12/20 04:27:04;;;;;;;6.85;2.78;;;;;;;6.72;100.00;101112.47;6199909;28;20060;-75
2022/12/20 04:30:07;;;;;;;3.60;1.98;;;;;;;6.67;100.00;101110.88;6199395;28;20054;-75
2022/12/20 04:33:10;;;;;;;4.90;2.85;;;;;;;6.57;100.00;101118.16;6199583;28;20058;-75
2022/12/20 04:36:12;;;;;;;6.95;3.28;;;;;;;6.66;100.00;101123.09;6199219;28;20517;-75
2022/12/20 04:39:13;;;;;;;5.75;2.78;;;;;;;6.75;100.00;101103.66;6199420;28;20407;-75
2022/12/20 04:42:15;;;;;;;3.97;2.50;;;;;;;6.74;100.00;101110.66;6199046;28;20046;-75
2022/12/20 04:45:16;;;;;;;11.30;3.10;;;;;;;6.83;100.00;101115.56;6198941;28;20498;-75
2022/12/20 04:48:20;;;;;;;5.68;2.75;;;;;;;6.91;100.00;101109.25;6199351;28;20050;-75
2022/12/20 04:51:21;;;;;;;4.05;2.20;;;;;;;6.96;100.00;101118.66;6198892;28;20053;-75
2022/12/20 04:54:25;;;;;;;5.03;2.70;;;;;;;7.02;100.00;101123.66;6199053;28;20058;-75
2022/12/20 04:57:27;;;;;;;8.02;2.78;;;;;;;7.07;100.00;101116.53;6198873;28;20050;-75
2022/12/20 05:00:28;;;;;;;7.95;2.88;;;;;;;7.07;100.00;101119.16;6198758;28;20046;-75
2022/12/20 05:03:31;;;;;;;6.25;2.65;;;;;;;7.06;100.00;101117.44;6198768;28;20054;-75
2022/12/20 05:06:32;;;;;;;7.45;2.55;;;;;;;7.00;100.00;101107.19;6198709;28;20422;-75
2022/12/20 05:09:34;;;;;;;6.10;2.63;;;;;;;6.94;100.00;101107.38;6198694;28;20046;-75
2022/12/20 05:12:35;;;;;;;3.85;2.55;;;;;;;6.92;100.00;101111.81;6198686;28;20522;-75
2022/12/20 05:15:37;;;;;;;6.97;2.67;;;;;;;7.00;100.00;101101.97;6198466;28;20054;-75
2022/12/20 05:18:39;;;;;;;6.28;3.28;;;;;;;7.08;100.00;101102.56;6198595;28;20055;-75
2022/12/20 05:28:31;;;;;;;8.57;3.60;;;;;;;7.21;100.00;101100.38;6231265;22;20139;-78
2022/12/20 05:31:32;;;;;;;5.05;2.60;;;;;;;7.19;100.00;101097.00;6273451;28;20041;-78
2022/12/20 05:34:35;;;;;;;5.25;3.03;;;;;;;7.20;100.00;101090.84;6272429;28;20064;-79
2022/12/20 05:37:36;;;;;;;6.05;3.70;;;;;;;7.19;100.00;101088.28;6273821;28;20053;-78
2022/12/20 05:40:39;;;;;;;6.03;3.00;;;;;;;7.16;100.00;101088.38;6260881;28;20048;-77
2022/12/20 05:43:41;;;;;;;7.78;3.40;;;;;;;7.12;100.00;101085.88;6258697;28;20072;-78
2022/12/20 05:46:43;;;;;;;5.18;3.47;;;;;;;7.10;100.00;101084.22;6260237;28;20052;-78
2022/12/20 05:49:45;;;;;;;9.05;3.60;;;;;;;7.07;100.00;101086.94;6261692;28;20068;-79
2022/12/20 05:52:47;;;;;;;6.75;3.47;;;;;;;7.06;100.00;101080.00;6273075;28;20504;-79
2022/12/20 05:55:50;;;;;;;12.32;4.88;;;;;;;7.07;100.00;101077.34;6273137;28;20052;-78
2022/12/20 05:58:52;;;;;;;13.30;3.70;;;;;;;6.99;100.00;101081.09;6273217;28;20442;-78
2022/12/20 06:01:53;;;;;;;7.38;3.95;;;;;;;6.95;100.00;101087.34;6274018;28;20052;-78
2022/12/20 06:04:57;;;;;;;12.10;5.28;;;;;;;6.92;100.00;101077.84;6275101;28;20053;-78
2022/12/20 06:07:59;;;;;;;7.65;3.95;;;;;;;6.93;100.00;101070.88;6274344;28;20045;-79
2022/12/20 06:11:03;;;;;;;10.15;4.43;;;;;;;6.98;100.00;101075.03;6273952;28;20041;-79
2022/12/20 06:14:04;;;;;;;8.80;3.67;;;;;;;6.99;100.00;101079.34;6273097;28;20075;-80
2022/12/20 06:17:06;;;;;;;11.38;4.63;;;;;;;7.02;100.00;101084.47;6273855;28;20045;-79
2022/12/20 06:20:11;;;;;;;8.45;4.15;;;;;;;7.08;100.00;101088.63;6266973;28;20056;-79
2022/12/20 06:23:12;;;;;;;12.05;4.57;;;;;;;7.14;100.00;101095.44;6273412;28;20401;-79
2022/12/20 06:26:14;;;;;;;8.32;3.97;;;;;;;7.09;100.00;101092.97;6260428;28;20056;-79
2022/12/20 06:29:16;;;;;;;10.43;4.97;;;;;;;7.18;100.00;101099.66;6259148;28;20045;-79
2022/12/20 06:32:18;;;;;;;8.95;4.82;;;;;;;7.24;100.00;101097.69;6259018;28;20037;-77
2022/12/20 06:35:21;;;;;;;7.75;3.83;;;;;;;7.21;100.00;101094.31;6260202;28;20049;-77
2022/12/20 06:38:22;;;;;;;7.75;4.22;;;;;;;7.22;100.00;101094.28;6268205;28;20060;-79
2022/12/20 06:41:23;;;;;;;10.65;4.40;;;;;;;7.20;100.00;101090.00;6273506;28;20412;-79
2022/12/20 06:44:25;;;;;;;9.90;4.35;;;;;;;7.19;100.00;101089.16;6273584;28;20064;-79
2022/12/20 06:47:26;;;;;;;8.35;4.32;;;;;;;7.16;100.00;101086.63;6273677;28;20052;-79
2022/12/20 06:50:29;;;;;;;11.52;4.28;;;;;;;7.19;100.00;101076.06;6273633;28;20041;-79
2022/12/20 06:53:30;;;;;;;9.38;4.13;;;;;;;7.22;100.00;101082.94;6273603;28;20049;-80
2022/12/20 06:56:32;;;;;;;14.60;4.85;;;;;;;7.25;100.00;101075.84;6272604;28;20053;-77
2022/12/20 06:59:34;;;;;;;11.30;4.22;;;;;;;7.25;100.00;101061.94;6272920;28;20604;-77
2022/12/20 07:02:35;;;;;;;12.30;4.18;;;;;;;7.35;100.00;101072.00;6272991;28;20051;-77
2022/12/20 07:05:38;;;;;;;15.70;4.68;;;;;;;7.40;100.00;101064.00;6272928;28;20055;-77
2022/12/20 07:08:39;;;;;;;13.65;4.78;;;;;;;7.40;100.00;101055.31;6273072;28;20049;-80
2022/12/20 07:11:42;;;;;;;7.47;3.85;;;;;;;7.41;100.00;101068.34;6273169;28;20056;-77
2022/12/20 07:14:43;;;;;;;6.32;3.55;;;;;;;7.47;100.00;101060.28;6273185;28;20131;-75
2022/12/20 07:17:45;;;;;;;9.20;4.10;;;;;;;7.46;100.00;101055.13;6271419;28;20049;-78
2022/12/20 07:20:47;;;;;;;14.18;5.80;;;;;;;7.49;100.00;101055.84;6271231;28;20052;-81
2022/12/20 07:23:49;;;;;;;14.40;4.53;;;;;;;7.45;100.00;101053.38;6249751;28;20045;-80
2022/12/20 07:26:50;;;;;;;8.93;3.72;;;;;;;7.49;100.00;101062.84;6246993;28;20074;-79
2022/12/20 07:29:52;;;;;;;11.15;4.70;;;;;;;7.47;100.00;101064.66;6246905;28;20501;-78
2022/12/20 07:32:53;;;;;;;8.40;3.75;;;;;;;7.47;100.00;101064.66;6246640;28;20044;-78
2022/12/20 07:36:01;;;;;;;7.55;3.92;;;;;;;7.52;100.00;101068.81;6247437;28;20053;-78
2022/12/20 07:39:03;;;;;;;10.75;4.63;;;;;;;7.51;100.00;101069.72;6246908;28;20053;-78
2022/12/20 07:42:04;;;;;;;8.73;4.10;;;;;;;7.53;100.00;101065.28;6247139;28;20045;-78
2022/12/20 07:45:07;;;;;;;7.70;3.65;;;;;;;7.57;100.00;101064.28;6246737;28;20052;-79
2022/12/20 07:48:08;;;;;;;7.35;3.75;;;;;;;7.62;100.00;101054.50;6247134;28;20045;-79
2022/12/20 07:51:15;;;;;;;9.25;4.75;;;;;;;7.60;100.00;101058.94;6246605;28;20394;-81
2022/12/20 07:54:19;;;;;;;6.72;3.90;;;;;;;7.66;100.00;101057.84;6247069;28;20053;-80
2022/12/20 07:57:27;;;;;;;8.80;3.70;;;;;;;7.58;100.00;101060.75;6249116;28;20049;-79
2022/12/20 08:00:29;;;;;;;12.32;3.65;;;;;;;7.60;100.00;101076.41;6252223;28;20060;-78
2022/12/20 08:03:35;;;;;;;9.70;3.97;;;;;;;7.65;100.00;101058.78;6252174;28;20052;-79
2022/12/20 08:06:40;;;;;;;6.93;4.22;;;;;;;7.65;100.00;101060.53;6251585;28;20516;-79
2022/12/20 08:09:44;;;;;;;11.45;4.38;;;;;;;7.68;100.00;101058.66;6252044;28;20077;-79
2022/12/20 08:12:48;;;;;;;11.10;4.63;;;;;;;7.64;100.00;101059.69;6250878;28;20056;-78
2022/12/20 08:15:49;;;;;;;5.97;3.70;;;;;;;7.59;100.00;101062.47;6251214;28;20056;-78
2022/12/20 08:18:51;;;;;;;10.82;3.72;;;;;;;7.59;100.00;101059.00;6251150;28;20397;-79
2022/12/20 08:21:54;;;;;;;8.73;3.80;;;;;;;7.69;100.00;101055.13;6250425;28;20053;-79
2022/12/20 08:24:55;;;;;;;9.10;4.22;;;;;;;7.75;100.00;101044.44;6250013;28;20053;-79
2022/12/20 08:28:00;;;;;;;6.38;3.53;;;;;;;7.70;100.00;101035.06;6250159;28;20060;-78
2022/12/20 08:31:02;;;;;;;7.70;4.07;;;;;;;7.70;100.00;101030.69;6250404;28;20056;-79
2022/12/20 08:34:04;;;;;;;9.88;4.30;;;;;;;7.80;100.00;101042.50;6250388;28;20532;-79
2022/12/20 08:37:06;;;;;;;6.20;4.00;;;;;;;7.75;100.00;101036.59;6250590;28;20056;-79
2022/12/20 08:40:09;;;;;;;8.93;4.75;;;;;;;7.74;100.00;101040.13;6250431;28;20053;-78
2022/12/20 08:43:11;;;;;;;9.55;4.53;;;;;;;7.81;100.00;101039.00;6250956;28;20041;-78
2022/12/20 08:46:12;;;;;;;11.13;4.38;;;;;;;7.93;100.00;101039.44;6251929;28;20128;-81
2022/12/20 08:49:14;;;;;;;7.45;3.80;;;;;;;7.84;100.00;101030.16;6251272;28;20413;-79
2022/12/20 08:52:16;;;;;;;7.43;3.88;;;;;;;7.88;100.00;101031.75;6251519;28;20053;-78
2022/12/20 08:55:18;;;;;;;8.45;4.30;;;;;;;7.94;100.00;101025.44;6272928;28;20527;-69
2022/12/20 08:58:20;;;;;;;14.40;5.07;;;;;;;7.98;100.00;101033.13;6276841;28;20060;-79
2022/12/20 09:01:22;;;;;;;7.75;3.92;;;;;;;7.97;100.00;101020.09;6276535;28;20052;-78
2022/12/20 09:04:23;;;;;;;9.85;4.13;;;;;;;8.05;100.00;101029.38;6275669;28;20045;-80
2022/12/20 09:07:26;;;;;;;10.32;4.10;;;;;;;8.10;100.00;101021.34;6276924;28;20053;-78
2022/12/20 09:10:28;;;;;;;6.88;3.67;;;;;;;8.09;100.00;101004.78;6275155;28;20045;-77
2022/12/20 09:13:29;;;;;;;13.57;4.60;;;;;;;8.14;100.00;101008.06;6276415;28;20052;-78
2022/12/20 09:16:32;;;;;;;7.65;3.88;;;;;;;8.19;100.00;101001.81;6276773;28;20515;-78
2022/12/20 09:19:34;;;;;;;7.47;4.07;;;;;;;8.25;100.00;100991.94;6277012;28;20048;-78
2022/12/20 09:22:36;;;;;;;7.53;3.58;;;;;;;8.19;100.00;100993.94;6278684;28;20060;-78
2022/12/20 09:25:38;;;;;;;5.68;3.58;;;;;;;8.22;100.00;100991.19;6275437;28;20049;-78
2022/12/20 09:28:40;;;;;;;9.45;3.85;;;;;;;8.38;100.00;100987.94;6275724;28;20056;-77
2022/12/20 09:31:41;;;;;;;7.85;3.88;;;;;;;8.44;100.00;100980.75;6275884;28;20049;-78
2022/12/20 09:34:42;;;;;;;11.00;4.13;;;;;;;8.50;100.00;100985.75;6276900;28;20500;-77
2022/12/20 09:37:45;;;;;;;9.90;3.83;;;;;;;8.55;100.00;100978.56;6276497;28;20053;-77
2022/12/20 09:40:49;;;;;;;6.80;3.70;;;;;;;8.53;100.00;100986.47;6276362;28;20424;-77
2022/12/20 09:43:50;;;;;;;9.13;3.22;;;;;;;8.56;100.00;100981.09;6278223;28;20057;-77
2022/12/20 09:46:54;;;;;;;8.35;3.08;;;;;;;8.64;100.00;100981.66;6277551;28;20057;-78
2022/12/20 09:49:57;;;;;;;10.77;3.53;;;;;;;8.61;100.00;100981.75;6276249;28;20049;-78
2022/12/20 09:53:14;;;;;;;6.55;3.38;;;;;;;8.59;100.00;100967.88;6277149;28;20052;-77
2022/12/20 09:56:21;;;;;;;7.03;3.10;;;;;;;8.69;100.00;100978.84;6277423;28;20045;-72
2022/12/20 09:59:23;;;;;;;6.32;3.13;;;;;;;8.71;100.00;100966.50;6280038;28;20055;-78
2022/12/20 10:02:26;;;;;;;8.23;3.58;;;;;;;8.75;100.00;100957.59;6283976;28;20408;-78
2022/12/20 10:05:36;;;;;;;5.50;3.03;;;;;;;8.74;100.00;100953.28;6284595;28;20048;-78
2022/12/20 10:08:45;;;;;;;6.93;3.05;;;;;;;8.80;100.00;100963.50;6282879;28;20053;-77
2022/12/20 10:12:01;;;;;;;8.07;2.97;;;;;;;8.87;100.00;100943.13;6281179;28;20060;-77
2022/12/20 10:15:18;;;;;;;12.80;3.63;;;;;;;8.84;100.00;100933.63;6282614;28;20059;-77
2022/12/20 10:18:32;;;;;;;5.40;3.00;;;;;;;8.84;100.00;100940.63;6280713;28;20060;-77
2022/12/20 10:21:44;;;;;;;8.57;2.85;;;;;;;8.81;100.00;100930.28;6296057;28;20060;-77
2022/12/20 10:24:56;;;;;;;11.60;3.45;;;;;;;8.85;100.00;100935.31;6298089;28;20037;-77
2022/12/20 10:28:00;;;;;;;6.38;2.88;;;;;;;8.95;100.00;100932.31;6297123;28;20049;-78
2022/12/20 10:31:04;;;;;;;10.40;3.58;;;;;;;9.01;100.00;100926.81;6298187;28;20049;-78
2022/12/20 10:34:06;;;;;;;7.45;2.95;;;;;;;9.07;100.00;100937.00;6296612;28;20049;-78
2022/12/20 10:37:13;;;;;;;9.10;4.18;;;;;;;9.15;100.00;100924.44;6296206;28;20049;-78
2022/12/20 10:40:26;;;;;;;5.80;2.88;;;;;;;9.11;100.00;100920.22;6286786;28;20059;-77
2022/12/20 10:43:38;;;;;;;7.05;3.53;;;;;;;9.17;100.00;100919.94;6281073;28;20045;-77
2022/12/20 10:46:43;;;;;;;6.05;3.13;;;;;;;9.19;100.00;100912.03;6279343;28;20053;-78
2022/12/20 10:49:45;;;;;;;5.97;3.35;;;;;;;9.22;100.00;100909.25;6289053;28;20051;-78
2022/12/20 10:53:03;;;;;;;11.30;3.00;;;;;;;9.18;100.00;100913.81;6300601;28;20045;-78
2022/12/20 10:56:19;;;;;;;5.07;2.88;;;;;;;9.09;100.00;100903.75;6299488;28;20071;-77
2022/12/20 10:59:30;;;;;;;6.95;3.00;;;;;;;9.19;100.00;100912.03;6300571;28;20075;-77
2022/12/20 11:02:34;;;;;;;3.58;2.75;;;;;;;9.22;100.00;100912.75;6299284;28;20041;-77
2022/12/20 11:05:35;;;;;;;4.65;2.65;;;;;;;9.26;100.00;100909.03;6296544;28;20048;-78
2022/12/20 11:08:37;;;;;;;5.55;3.33;;;;;;;9.26;100.00;100905.56;6276084;28;20045;-78
2022/12/20 11:11:57;;;;;;;4.10;2.47;;;;;;;9.28;100.00;100903.75;6275954;28;20044;-78
2022/12/20 11:15:09;;;;;;;7.25;2.75;;;;;;;9.29;100.00;100906.28;6275327;28;20053;-77
2022/12/20 11:18:20;;;;;;;5.50;2.53;;;;;;;9.29;100.00;100903.66;6274417;28;20127;-78
2022/12/20 11:21:31;;;;;;;3.97;2.65;;;;;;;9.31;100.00;100895.72;6275957;28;20053;-78
2022/12/20 11:24:40;;;;;;;8.65;2.85;;;;;;;9.24;100.00;100889.94;6274545;28;20493;-78
2022/12/20 11:27:52;;;;;;;3.80;2.55;;;;;;;9.17;100.00;100880.63;6274805;28;20501;-80
2022/12/20 11:31:06;;;;;;;6.95;2.33;;;;;;;9.18;100.00;100879.72;6280099;28;20049;-77
2022/12/20 11:34:18;;;;;;;5.13;3.08;;;;;;;9.18;100.00;100876.25;6282234;28;20492;-78
2022/12/20 11:37:22;;;;;;;9.15;2.90;;;;;;;9.26;100.00;100884.59;6283595;28;20477;-78
2022/12/20 11:40:30;;;;;;;10.80;2.97;;;;;;;9.25;100.00;100877.66;6286092;28;20052;-78
2022/12/20 11:43:51;;;;;;;4.75;2.22;;;;;;;9.34;100.00;100879.84;6281752;28;20420;-77
2022/12/20 11:47:07;;;;;;;8.82;3.17;;;;;;;9.33;100.00;100857.19;6281080;28;20060;-79
2022/12/20 11:50:25;;;;;;;4.35;2.58;;;;;;;9.38;100.00;100853.41;6280742;28;20061;-79
2022/12/20 11:53:35;;;;;;;6.40;2.63;;;;;;;9.35;100.00;100857.94;6281161;28;20052;-78
2022/12/20 11:56:38;;;;;;;7.78;2.35;;;;;;;9.41;100.00;100860.31;6280926;28;20053;-80
2022/12/20 11:59:47;;;;;;;7.03;3.22;;;;;;;9.46;100.00;100852.22;6280602;28;20048;-77
2022/12/20 12:02:55;;;;;;;5.00;2.80;;;;;;;9.44;100.00;100849.66;6281421;28;20057;-78
2022/12/20 12:06:00;;;;;;;3.95;2.58;;;;;;;9.45;100.00;100840.00;6281439;28;20060;-79
2022/12/20 12:09:12;;;;;;;5.65;2.85;;;;;;;9.43;100.00;100841.88;6281907;28;20048;-78
2022/12/20 12:12:22;;;;;;;4.72;2.75;;;;;;;9.52;100.00;100834.41;6282559;28;20420;-79
2022/12/20 12:15:34;;;;;;;4.78;2.83;;;;;;;9.51;100.00;100832.72;6281164;28;20424;-79
2022/12/20 12:18:36;;;;;;;6.10;2.35;;;;;;;9.55;100.00;100833.41;6279779;28;20131;-78
2022/12/20 12:21:43;;;;;;;8.40;2.72;;;;;;;9.59;100.00;100832.34;6280437;28;20053;-79
2022/12/20 12:24:49;;;;;;;5.93;2.63;;;;;;;9.63;100.00;100842.63;6279702;28;20045;-79
2022/12/20 12:27:51;;;;;;;5.32;2.53;;;;;;;9.66;100.00;100829.34;6279971;28;20049;-79
2022/12/20 12:30:58;;;;;;;4.53;2.58;;;;;;;9.64;100.00;100823.34;6279698;28;20413;-78
2022/12/20 12:34:11;;;;;;;3.75;2.13;;;;;;;9.60;100.00;100818.31;6280384;28;20045;-79
2022/12/20 12:37:28;;;;;;;3.35;2.35;;;;;;;9.59;100.00;100814.00;6279320;28;20045;-79
2022/12/20 12:41:07;;;;;;;5.07;2.50;;;;;;;9.59;100.00;100808.75;6278416;28;20041;-78
2022/12/20 12:44:26;;;;;;;;;;;;;;;9.61;100.00;100809.50;6275138;28;20477;-78
2022/12/20 12:47:38;;;;;;;5.63;2.70;;;;;;;9.62;100.00;100811.19;6280056;28;20369;-78
2022/12/20 12:50:44;;;;;;;6.85;2.97;;;;;;;9.67;100.00;100809.19;6280189;28;20052;-78
2022/12/20 12:53:51;;;;;;;3.78;2.17;;;;;;;9.63;100.00;100807.69;6279494;28;20048;-79
2022/12/20 12:56:55;;;;;;;3.38;2.20;;;;;;;9.64;100.00;100812.00;6272638;28;20045;-79
2022/12/20 12:59:56;;;;;;;5.75;2.50;;;;;;;9.60;100.00;100808.66;6264569;28;20056;-78
2022/12/20 13:02:59;;;;;;;4.38;2.63;;;;;;;9.57;100.00;100805.31;6254443;28;20509;-79
2022/12/20 13:06:48;;;;;;;4.50;2.13;;;;;;;9.52;100.00;100813.41;6253534;28;20060;-78
2022/12/20 13:09:49;;;;;;;4.78;2.53;;;;;;;9.40;100.00;100814.00;6252922;28;20061;-77
2022/12/20 13:12:59;;;;;;;4.95;2.85;;;;;;;9.30;100.00;100812.72;6255457;28;20045;-77
2022/12/20 13:16:14;;;;;;;4.75;2.75;;;;;;;9.23;100.00;100813.97;6257425;28;20148;-78
2022/12/20 13:19:19;;;;;;;5.82;2.90;;;;;;;9.13;100.00;100813.53;6258771;28;20056;-78
2022/12/20 13:22:22;;;;;;;7.32;3.33;;;;;;;9.05;100.00;100810.41;6259281;28;20053;-78
2022/12/20 13:25:29;;;;;;;8.38;2.67;;;;;;;8.89;100.00;100810.25;6257018;28;20508;-78
2022/12/20 13:28:48;;;;;;;5.53;3.05;;;;;;;8.85;100.00;100808.69;6253581;28;20049;-77
2022/12/20 13:31:50;;;;;;;6.18;2.95;;;;;;;8.88;100.00;100805.94;6256827;28;20057;-77
2022/12/20 13:34:57;;;;;;;6.50;2.67;;;;;;;8.93;100.00;100806.56;6257548;28;20050;-77
2022/12/20 13:38:01;;;;;;;4.03;2.38;;;;;;;8.91;100.00;100804.97;6257933;28;20076;-77
2022/12/20 13:41:12;;;;;;;4.63;2.85;;;;;;;8.86;100.00;100813.88;6258522;28;20406;-77
2022/12/20 13:44:35;;;;;;;7.95;3.05;;;;;;;8.81;100.00;100813.25;6256961;28;20052;-77
2022/12/20 13:47:42;;;;;;;6.07;2.78;;;;;;;8.91;100.00;100815.44;6257692;28;20130;-77
2022/12/20 13:50:51;;;;;;;6.20;3.15;;;;;;;8.88;100.00;100819.88;6257234;28;20061;-77
2022/12/20 13:53:55;;;;;;;5.00;2.30;;;;;;;8.93;100.00;100816.22;6256412;28;20049;-77
2022/12/20 13:56:58;;;;;;;6.30;2.97;;;;;;;8.92;100.00;100804.03;6256142;28;20045;-77
2022/12/20 14:00:03;;;;;;;9.90;2.40;;;;;;;8.85;100.00;100806.91;6256076;28;20053;-77
2022/12/20 14:03:05;;;;;;;6.35;2.45;;;;;;;8.82;100.00;100800.97;6256508;28;20056;-77
2022/12/20 14:06:10;;;;;;;4.32;2.67;;;;;;;8.77;100.00;100809.06;6256016;28;20053;-77
2022/12/20 14:09:28;;;;;;;3.55;2.33;;;;;;;8.72;100.00;100804.91;6255978;28;20053;-76
2022/12/20 14:12:30;;;;;;;6.68;2.88;;;;;;;8.74;100.00;100810.94;6255930;28;20103;-77
2022/12/20 14:15:34;;;;;;;6.03;3.03;;;;;;;8.66;100.00;100806.03;6257533;28;20181;-76
2022/12/20 14:18:35;;;;;;;6.65;2.85;;;;;;;8.61;100.00;100815.88;6256733;28;20049;-77
2022/12/20 14:21:42;;;;;;;6.65;3.53;;;;;;;8.54;100.00;100807.44;6256500;28;20053;-78
2022/12/20 14:24:44;;;;;;;4.30;2.78;;;;;;;8.47;100.00;100813.88;6256611;28;20092;-77
2022/12/20 14:27:47;;;;;;;7.43;2.88;;;;;;;8.42;100.00;100815.84;6256540;28;20055;-77